sensor_id;sensor_type;location;lat;lon;timestamp;temperature;humidity
3790;DHT22;1910;49.042;9.028;2023-10-13T00:03:56;17.30;99.90
3790;DHT22;1910;49.042;9.028;2023-10-13T00:06:22;17.30;99.90
3790;DHT22;1910;49.042;9.028;2023-10-13T00:08:47;17.30;99.90
3790;DHT22;1910;49.042;9.028;2023-10-13T00:11:14;17.50;99.90
3790;DHT22;1910;49.042;9.028;2023-10-13T00:13:40;17.30;99.90
3790;DHT22;1910;49.042;9.028;2023-10-13T00:16:08;18.10;99.90
3790;DHT22;1910;49.042;9.028;2023-10-13T00:21:08;17.00;99.90
3790;DHT22;1910;49.042;9.028;2023-10-13T00:23:45;16.50;99.90
3790;DHT22;1910;49.042;9.028;2023-10-13T00:26:25;16.50;99.90
3790;DHT22;1910;49.042;9.028;2023-10-13T00:28:53;16.30;99.90
3790;DHT22;1910;49.042;9.028;2023-10-13T00:31:36;16.20;99.90
3790;DHT22;1910;49.042;9.028;2023-10-13T00:34:04;16.10;99.90
3790;DHT22;1910;49.042;9.028;2023-10-13T00:36:48;16.10;99.90
3790;DHT22;1910;49.042;9.028;2023-10-13T00:42:02;16.20;99.90
3790;DHT22;1910;49.042;9.028;2023-10-13T00:44:32;16.20;99.90
3790;DHT22;1910;49.042;9.028;2023-10-13T00:47:08;16.20;99.90
3790;DHT22;1910;49.042;9.028;2023-10-13T00:49:35;16.20;99.90
3790;DHT22;1910;49.042;9.028;2023-10-13T00:52:06;16.20;99.90
3790;DHT22;1910;49.042;9.028;2023-10-13T00:54:33;16.30;99.90
3790;DHT22;1910;49.042;9.028;2023-10-13T00:57:01;16.20;99.90
3790;DHT22;1910;49.042;9.028;2023-10-13T00:59:33;16.20;99.90
3790;DHT22;1910;49.042;9.028;2023-10-13T01:02:02;18.20;99.90
3790;DHT22;1910;49.042;9.028;2023-10-13T01:04:48;16.20;99.90
3790;DHT22;1910;49.042;9.028;2023-10-13T01:07:14;16.20;99.90
3790;DHT22;1910;49.042;9.028;2023-10-13T01:09:42;16.10;99.90
3790;DHT22;1910;49.042;9.028;2023-10-13T01:12:08;16.00;99.90
3790;DHT22;1910;49.042;9.028;2023-10-13T01:14:34;16.00;99.90
3790;DHT22;1910;49.042;9.028;2023-10-13T01:17:01;16.00;99.90
3790;DHT22;1910;49.042;9.028;2023-10-13T01:19:27;16.00;99.90
3790;DHT22;1910;49.042;9.028;2023-10-13T01:21:53;15.90;99.90
3790;DHT22;1910;49.042;9.028;2023-10-13T01:24:27;15.80;99.90
3790;DHT22;1910;49.042;9.028;2023-10-13T01:26:56;15.80;99.90
3790;DHT22;1910;49.042;9.028;2023-10-13T01:29:22;15.80;99.90
3790;DHT22;1910;49.042;9.028;2023-10-13T01:31:51;15.70;99.90
3790;DHT22;1910;49.042;9.028;2023-10-13T01:34:18;15.70;99.90
3790;DHT22;1910;49.042;9.028;2023-10-13T01:36:51;15.70;99.90
3790;DHT22;1910;49.042;9.028;2023-10-13T01:39:19;15.70;99.90
3790;DHT22;1910;49.042;9.028;2023-10-13T01:41:46;15.70;99.90
3790;DHT22;1910;49.042;9.028;2023-10-13T01:44:11;15.70;99.90
3790;DHT22;1910;49.042;9.028;2023-10-13T01:46:40;15.70;99.90
3790;DHT22;1910;49.042;9.028;2023-10-13T01:49:08;15.60;99.90
3790;DHT22;1910;49.042;9.028;2023-10-13T01:51:34;15.60;99.90
3790;DHT22;1910;49.042;9.028;2023-10-13T01:53:59;15.60;99.90
3790;DHT22;1910;49.042;9.028;2023-10-13T01:56:28;15.70;99.90
3790;DHT22;1910;49.042;9.028;2023-10-13T01:58:56;15.70;99.90
3790;DHT22;1910;49.042;9.028;2023-10-13T02:01:22;15.60;99.90
3790;DHT22;1910;49.042;9.028;2023-10-13T02:03:57;15.60;99.90
3790;DHT22;1910;49.042;9.028;2023-10-13T02:06:30;15.60;99.90
3790;DHT22;1910;49.042;9.028;2023-10-13T02:09:01;15.60;99.90
3790;DHT22;1910;49.042;9.028;2023-10-13T02:11:37;15.80;99.90
3790;DHT22;1910;49.042;9.028;2023-10-13T02:14:03;15.80;99.90
3790;DHT22;1910;49.042;9.028;2023-10-13T02:16:28;15.80;99.90
3790;DHT22;1910;49.042;9.028;2023-10-13T02:18:56;15.70;99.90
3790;DHT22;1910;49.042;9.028;2023-10-13T02:21:23;15.70;99.90
3790;DHT22;1910;49.042;9.028;2023-10-13T02:23:57;15.70;99.90
3790;DHT22;1910;49.042;9.028;2023-10-13T02:26:26;15.70;99.90
3790;DHT22;1910;49.042;9.028;2023-10-13T02:29:04;15.60;99.90
3790;DHT22;1910;49.042;9.028;2023-10-13T02:31:40;15.60;99.90
3790;DHT22;1910;49.042;9.028;2023-10-13T02:34:06;15.50;99.90
3790;DHT22;1910;49.042;9.028;2023-10-13T02:36:40;15.40;99.90
3790;DHT22;1910;49.042;9.028;2023-10-13T02:39:15;15.40;99.90
3790;DHT22;1910;49.042;9.028;2023-10-13T02:41:42;15.10;99.90
3790;DHT22;1910;49.042;9.028;2023-10-13T02:44:14;14.90;99.90
3790;DHT22;1910;49.042;9.028;2023-10-13T02:46:54;14.60;99.90
3790;DHT22;1910;49.042;9.028;2023-10-13T02:49:22;14.50;99.90
3790;DHT22;1910;49.042;9.028;2023-10-13T02:51:47;14.40;99.90
3790;DHT22;1910;49.042;9.028;2023-10-13T02:54:13;14.30;99.90
3790;DHT22;1910;49.042;9.028;2023-10-13T02:56:44;14.20;99.90
3790;DHT22;1910;49.042;9.028;2023-10-13T02:59:15;14.10;99.90
3790;DHT22;1910;49.042;9.028;2023-10-13T03:01:45;14.10;99.90
3790;DHT22;1910;49.042;9.028;2023-10-13T03:04:10;14.20;99.90
3790;DHT22;1910;49.042;9.028;2023-10-13T03:06:38;14.70;99.90
3790;DHT22;1910;49.042;9.028;2023-10-13T03:09:08;14.30;99.90
3790;DHT22;1910;49.042;9.028;2023-10-13T03:11:47;14.40;99.90
3790;DHT22;1910;49.042;9.028;2023-10-13T03:14:14;14.40;99.90
3790;DHT22;1910;49.042;9.028;2023-10-13T03:16:54;14.50;99.90
3790;DHT22;1910;49.042;9.028;2023-10-13T03:19:20;17.00;99.90
3790;DHT22;1910;49.042;9.028;2023-10-13T03:21:46;14.90;99.90
3790;DHT22;1910;49.042;9.028;2023-10-13T03:26:48;14.80;99.90
3790;DHT22;1910;49.042;9.028;2023-10-13T03:29:17;14.90;99.90
3790;DHT22;1910;49.042;9.028;2023-10-13T03:31:47;14.90;99.90
3790;DHT22;1910;49.042;9.028;2023-10-13T03:34:28;14.90;99.90
3790;DHT22;1910;49.042;9.028;2023-10-13T03:36:55;15.00;99.90
3790;DHT22;1910;49.042;9.028;2023-10-13T03:39:23;14.90;99.90
3790;DHT22;1910;49.042;9.028;2023-10-13T03:41:57;14.80;99.90
3790;DHT22;1910;49.042;9.028;2023-10-13T03:44:23;14.70;99.90
3790;DHT22;1910;49.042;9.028;2023-10-13T03:46:49;14.70;99.90
3790;DHT22;1910;49.042;9.028;2023-10-13T03:49:18;14.60;99.90
3790;DHT22;1910;49.042;9.028;2023-10-13T03:51:48;14.70;99.90
3790;DHT22;1910;49.042;9.028;2023-10-13T03:54:14;14.60;99.90
3790;DHT22;1910;49.042;9.028;2023-10-13T03:56:42;14.50;99.90
3790;DHT22;1910;49.042;9.028;2023-10-13T03:59:10;14.40;99.90
3790;DHT22;1910;49.042;9.028;2023-10-13T04:01:44;14.30;99.90
3790;DHT22;1910;49.042;9.028;2023-10-13T04:04:13;14.30;99.90
3790;DHT22;1910;49.042;9.028;2023-10-13T04:06:41;14.20;99.90
3790;DHT22;1910;49.042;9.028;2023-10-13T04:09:17;14.30;99.90
3790;DHT22;1910;49.042;9.028;2023-10-13T04:12:03;14.20;99.90
3790;DHT22;1910;49.042;9.028;2023-10-13T04:17:13;14.20;99.90
3790;DHT22;1910;49.042;9.028;2023-10-13T04:19:40;14.10;99.90
3790;DHT22;1910;49.042;9.028;2023-10-13T04:22:26;15.90;99.90
3790;DHT22;1910;49.042;9.028;2023-10-13T04:25:30;14.10;99.90
3790;DHT22;1910;49.042;9.028;2023-10-13T04:28:13;14.20;99.90
3790;DHT22;1910;49.042;9.028;2023-10-13T04:30:42;14.20;99.90
3790;DHT22;1910;49.042;9.028;2023-10-13T04:33:29;14.20;99.90
3790;DHT22;1910;49.042;9.028;2023-10-13T04:36:15;14.20;99.90
3790;DHT22;1910;49.042;9.028;2023-10-13T04:39:04;14.20;99.90
3790;DHT22;1910;49.042;9.028;2023-10-13T04:41:35;14.10;99.90
3790;DHT22;1910;49.042;9.028;2023-10-13T04:44:05;14.10;99.90
3790;DHT22;1910;49.042;9.028;2023-10-13T04:49:19;14.50;99.90
3790;DHT22;1910;49.042;9.028;2023-10-13T04:51:59;14.60;99.90
3790;DHT22;1910;49.042;9.028;2023-10-13T04:54:26;14.80;99.90
3790;DHT22;1910;49.042;9.028;2023-10-13T04:56:52;15.00;99.90
3790;DHT22;1910;49.042;9.028;2023-10-13T05:02:20;15.90;99.90
3790;DHT22;1910;49.042;9.028;2023-10-13T05:05:07;16.30;99.90
3790;DHT22;1910;49.042;9.028;2023-10-13T05:07:51;16.40;99.90
3790;DHT22;1910;49.042;9.028;2023-10-13T05:10:36;16.50;99.90
3790;DHT22;1910;49.042;9.028;2023-10-13T05:13:20;16.60;99.90
3790;DHT22;1910;49.042;9.028;2023-10-13T05:16:04;16.60;99.90
3790;DHT22;1910;49.042;9.028;2023-10-13T05:18:53;16.60;99.90
3790;DHT22;1910;49.042;9.028;2023-10-13T05:21:37;16.60;99.90
3790;DHT22;1910;49.042;9.028;2023-10-13T05:24:21;16.50;99.90
3790;DHT22;1910;49.042;9.028;2023-10-13T05:27:05;16.50;99.90
3790;DHT22;1910;49.042;9.028;2023-10-13T05:29:50;16.60;99.90
3790;DHT22;1910;49.042;9.028;2023-10-13T05:32:34;16.60;99.90
3790;DHT22;1910;49.042;9.028;2023-10-13T05:35:20;16.50;99.90
3790;DHT22;1910;49.042;9.028;2023-10-13T05:38:05;16.50;99.90
3790;DHT22;1910;49.042;9.028;2023-10-13T05:41:00;16.50;99.90
3790;DHT22;1910;49.042;9.028;2023-10-13T05:43:45;16.60;99.90
3790;DHT22;1910;49.042;9.028;2023-10-13T05:46:29;16.60;99.90
3790;DHT22;1910;49.042;9.028;2023-10-13T05:49:14;16.60;99.90
3790;DHT22;1910;49.042;9.028;2023-10-13T05:51:43;16.60;99.90
3790;DHT22;1910;49.042;9.028;2023-10-13T05:54:12;16.30;99.90
3790;DHT22;1910;49.042;9.028;2023-10-13T05:56:48;16.60;99.90
3790;DHT22;1910;49.042;9.028;2023-10-13T05:59:34;16.60;99.90
3790;DHT22;1910;49.042;9.028;2023-10-13T06:05:04;16.80;99.90
3790;DHT22;1910;49.042;9.028;2023-10-13T06:07:49;17.00;99.90
3790;DHT22;1910;49.042;9.028;2023-10-13T06:13:19;17.10;99.90
3790;DHT22;1910;49.042;9.028;2023-10-13T06:16:08;17.20;99.90
3790;DHT22;1910;49.042;9.028;2023-10-13T06:18:52;17.30;99.90
3790;DHT22;1910;49.042;9.028;2023-10-13T06:21:37;17.30;99.90
3790;DHT22;1910;49.042;9.028;2023-10-13T06:24:21;17.50;99.90
3790;DHT22;1910;49.042;9.028;2023-10-13T06:27:05;17.80;99.90
3790;DHT22;1910;49.042;9.028;2023-10-13T06:29:50;18.20;99.90
3790;DHT22;1910;49.042;9.028;2023-10-13T06:32:19;18.60;99.90
3790;DHT22;1910;49.042;9.028;2023-10-13T06:34:45;18.30;99.90
3790;DHT22;1910;49.042;9.028;2023-10-13T06:37:11;18.30;99.90
3790;DHT22;1910;49.042;9.028;2023-10-13T06:39:54;18.30;99.90
3790;DHT22;1910;49.042;9.028;2023-10-13T06:42:27;18.40;99.90
3790;DHT22;1910;49.042;9.028;2023-10-13T06:44:54;18.60;99.90
3790;DHT22;1910;49.042;9.028;2023-10-13T06:47:20;18.70;99.90
3790;DHT22;1910;49.042;9.028;2023-10-13T06:52:17;18.70;99.90
3790;DHT22;1910;49.042;9.028;2023-10-13T06:54:42;18.70;99.90
3790;DHT22;1910;49.042;9.028;2023-10-13T06:57:09;18.50;99.90
3790;DHT22;1910;49.042;9.028;2023-10-13T06:59:42;18.50;99.90
3790;DHT22;1910;49.042;9.028;2023-10-13T07:02:08;18.50;99.90
3790;DHT22;1910;49.042;9.028;2023-10-13T07:04:47;18.50;99.90
3790;DHT22;1910;49.042;9.028;2023-10-13T07:07:13;19.10;99.90
3790;DHT22;1910;49.042;9.028;2023-10-13T07:09:44;20.00;99.90
3790;DHT22;1910;49.042;9.028;2023-10-13T07:12:21;20.60;99.90
3790;DHT22;1910;49.042;9.028;2023-10-13T07:14:51;20.90;99.90
3790;DHT22;1910;49.042;9.028;2023-10-13T07:19:54;21.50;99.90
3790;DHT22;1910;49.042;9.028;2023-10-13T07:22:22;21.90;99.90
3790;DHT22;1910;49.042;9.028;2023-10-13T07:24:50;21.30;99.90
3790;DHT22;1910;49.042;9.028;2023-10-13T07:27:17;20.80;99.90
3790;DHT22;1910;49.042;9.028;2023-10-13T07:29:55;21.30;99.90
3790;DHT22;1910;49.042;9.028;2023-10-13T07:32:42;21.80;99.90
3790;DHT22;1910;49.042;9.028;2023-10-13T07:35:15;22.60;99.90
3790;DHT22;1910;49.042;9.028;2023-10-13T07:37:43;22.90;98.90
3790;DHT22;1910;49.042;9.028;2023-10-13T07:40:10;22.90;97.80
3790;DHT22;1910;49.042;9.028;2023-10-13T07:42:52;23.10;97.20
3790;DHT22;1910;49.042;9.028;2023-10-13T07:45:18;23.80;96.00
3790;DHT22;1910;49.042;9.028;2023-10-13T07:47:47;24.00;94.60
3790;DHT22;1910;49.042;9.028;2023-10-13T07:50:12;24.40;93.80
3790;DHT22;1910;49.042;9.028;2023-10-13T07:52:38;24.20;93.40
3790;DHT22;1910;49.042;9.028;2023-10-13T07:55:23;24.50;92.80
3790;DHT22;1910;49.042;9.028;2023-10-13T07:57:49;24.70;92.50
3790;DHT22;1910;49.042;9.028;2023-10-13T08:00:22;25.00;92.30
3790;DHT22;1910;49.042;9.028;2023-10-13T08:02:59;25.00;91.70
3790;DHT22;1910;49.042;9.028;2023-10-13T08:05:52;25.30;90.70
3790;DHT22;1910;49.042;9.028;2023-10-13T08:08:27;25.20;90.60
3790;DHT22;1910;49.042;9.028;2023-10-13T08:11:10;25.00;89.40
3790;DHT22;1910;49.042;9.028;2023-10-13T08:13:56;25.20;88.00
3790;DHT22;1910;49.042;9.028;2023-10-13T08:16:29;25.20;88.70
3790;DHT22;1910;49.042;9.028;2023-10-13T08:19:15;25.20;87.10
3790;DHT22;1910;49.042;9.028;2023-10-13T08:21:42;25.40;86.90
3790;DHT22;1910;49.042;9.028;2023-10-13T08:24:16;26.00;85.30
3790;DHT22;1910;49.042;9.028;2023-10-13T08:26:42;27.00;83.90
3790;DHT22;1910;49.042;9.028;2023-10-13T08:29:44;26.90;81.30
3790;DHT22;1910;49.042;9.028;2023-10-13T08:32:19;27.60;80.00
3790;DHT22;1910;49.042;9.028;2023-10-13T08:35:00;28.10;79.40
3790;DHT22;1910;49.042;9.028;2023-10-13T08:37:32;28.20;74.80
3790;DHT22;1910;49.042;9.028;2023-10-13T08:40:01;28.00;74.30
3790;DHT22;1910;49.042;9.028;2023-10-13T08:42:38;27.40;74.80
3790;DHT22;1910;49.042;9.028;2023-10-13T08:45:16;27.60;76.90
3790;DHT22;1910;49.042;9.028;2023-10-13T08:47:52;26.60;75.80
3790;DHT22;1910;49.042;9.028;2023-10-13T08:53:22;26.80;76.60
3790;DHT22;1910;49.042;9.028;2023-10-13T08:58:41;26.00;77.50
3790;DHT22;1910;49.042;9.028;2023-10-13T09:01:35;25.50;77.50
3790;DHT22;1910;49.042;9.028;2023-10-13T09:04:17;25.40;81.40
3790;DHT22;1910;49.042;9.028;2023-10-13T09:06:44;25.60;80.70
3790;DHT22;1910;49.042;9.028;2023-10-13T09:12:20;25.40;79.40
3790;DHT22;1910;49.042;9.028;2023-10-13T09:14:55;25.50;80.00
3790;DHT22;1910;49.042;9.028;2023-10-13T09:17:29;25.40;81.00
3790;DHT22;1910;49.042;9.028;2023-10-13T09:19:59;26.10;80.90
3790;DHT22;1910;49.042;9.028;2023-10-13T09:25:03;26.20;77.50
3790;DHT22;1910;49.042;9.028;2023-10-13T09:27:38;26.60;79.00
3790;DHT22;1910;49.042;9.028;2023-10-13T09:30:06;26.50;77.50
3790;DHT22;1910;49.042;9.028;2023-10-13T09:32:44;26.90;76.80
3790;DHT22;1910;49.042;9.028;2023-10-13T09:35:18;27.40;75.90
3790;DHT22;1910;49.042;9.028;2023-10-13T09:40:16;27.40;74.10
3790;DHT22;1910;49.042;9.028;2023-10-13T09:43:12;27.60;75.00
3790;DHT22;1910;49.042;9.028;2023-10-13T09:45:41;27.40;73.50
3790;DHT22;1910;49.042;9.028;2023-10-13T09:48:12;27.00;75.10
3790;DHT22;1910;49.042;9.028;2023-10-13T09:50:44;26.50;74.20
3790;DHT22;1910;49.042;9.028;2023-10-13T09:53:11;26.30;76.00
3790;DHT22;1910;49.042;9.028;2023-10-13T09:55:58;25.90;74.90
3790;DHT22;1910;49.042;9.028;2023-10-13T09:58:36;25.90;76.60
3790;DHT22;1910;49.042;9.028;2023-10-13T10:01:06;26.10;75.30
3790;DHT22;1910;49.042;9.028;2023-10-13T10:03:44;26.60;76.40
3790;DHT22;1910;49.042;9.028;2023-10-13T10:06:22;26.80;74.60
3790;DHT22;1910;49.042;9.028;2023-10-13T10:09:07;27.10;75.90
3790;DHT22;1910;49.042;9.028;2023-10-13T10:15:07;27.70;70.90
3790;DHT22;1910;49.042;9.028;2023-10-13T10:17:40;27.70;70.80
3790;DHT22;1910;49.042;9.028;2023-10-13T10:20:06;27.80;70.60
3790;DHT22;1910;49.042;9.028;2023-10-13T10:25:10;27.80;69.10
3790;DHT22;1910;49.042;9.028;2023-10-13T10:28:05;27.30;70.70
3790;DHT22;1910;49.042;9.028;2023-10-13T10:30:37;27.50;72.80
3790;DHT22;1910;49.042;9.028;2023-10-13T10:33:09;27.40;72.80
3790;DHT22;1910;49.042;9.028;2023-10-13T10:35:43;27.50;72.20
3790;DHT22;1910;49.042;9.028;2023-10-13T10:38:14;27.80;74.10
3790;DHT22;1910;49.042;9.028;2023-10-13T10:40:54;27.70;72.70
3790;DHT22;1910;49.042;9.028;2023-10-13T10:43:25;27.70;69.00
3790;DHT22;1910;49.042;9.028;2023-10-13T10:45:52;27.80;69.30
3790;DHT22;1910;49.042;9.028;2023-10-13T10:48:18;27.50;70.30
3790;DHT22;1910;49.042;9.028;2023-10-13T10:50:51;27.50;71.00
3790;DHT22;1910;49.042;9.028;2023-10-13T10:53:22;27.60;69.20
3790;DHT22;1910;49.042;9.028;2023-10-13T10:55:48;27.90;71.80
3790;DHT22;1910;49.042;9.028;2023-10-13T11:01:09;28.10;64.10
3790;DHT22;1910;49.042;9.028;2023-10-13T11:03:57;28.40;68.60
3790;DHT22;1910;49.042;9.028;2023-10-13T11:06:24;28.50;66.10
3790;DHT22;1910;49.042;9.028;2023-10-13T11:09:04;28.20;65.10
3790;DHT22;1910;49.042;9.028;2023-10-13T11:11:33;28.20;65.60
3790;DHT22;1910;49.042;9.028;2023-10-13T11:14:01;27.70;61.30
3790;DHT22;1910;49.042;9.028;2023-10-13T11:16:47;27.70;62.30
3790;DHT22;1910;49.042;9.028;2023-10-13T11:19:42;28.00;63.00
3790;DHT22;1910;49.042;9.028;2023-10-13T11:22:14;27.90;58.90
3790;DHT22;1910;49.042;9.028;2023-10-13T11:25:05;27.80;58.60
3790;DHT22;1910;49.042;9.028;2023-10-13T11:27:38;27.70;58.60
3790;DHT22;1910;49.042;9.028;2023-10-13T11:30:17;27.80;59.70
3790;DHT22;1910;49.042;9.028;2023-10-13T11:33:00;28.00;58.90
3790;DHT22;1910;49.042;9.028;2023-10-13T11:35:26;27.90;56.20
3790;DHT22;1910;49.042;9.028;2023-10-13T11:38:13;27.80;56.40
3790;DHT22;1910;49.042;9.028;2023-10-13T11:40:40;27.80;54.80
3790;DHT22;1910;49.042;9.028;2023-10-13T11:43:09;27.70;54.00
3790;DHT22;1910;49.042;9.028;2023-10-13T11:45:40;27.80;54.40
3790;DHT22;1910;49.042;9.028;2023-10-13T11:48:20;27.70;53.90
3790;DHT22;1910;49.042;9.028;2023-10-13T11:51:12;27.80;53.40
3790;DHT22;1910;49.042;9.028;2023-10-13T11:53:49;27.80;53.90
3790;DHT22;1910;49.042;9.028;2023-10-13T11:56:19;27.80;52.40
3790;DHT22;1910;49.042;9.028;2023-10-13T12:03:44;27.90;51.40
3790;DHT22;1910;49.042;9.028;2023-10-13T12:06:38;27.80;50.80
3790;DHT22;1910;49.042;9.028;2023-10-13T12:09:09;27.80;50.70
3790;DHT22;1910;49.042;9.028;2023-10-13T12:11:47;28.00;51.00
3790;DHT22;1910;49.042;9.028;2023-10-13T12:14:15;28.10;50.30
3790;DHT22;1910;49.042;9.028;2023-10-13T12:16:52;28.10;50.60
3790;DHT22;1910;49.042;9.028;2023-10-13T12:19:22;28.20;49.60
3790;DHT22;1910;49.042;9.028;2023-10-13T12:21:57;28.30;49.60
3790;DHT22;1910;49.042;9.028;2023-10-13T12:24:27;28.70;49.30
3790;DHT22;1910;49.042;9.028;2023-10-13T12:27:03;28.60;49.70
3790;DHT22;1910;49.042;9.028;2023-10-13T12:29:50;28.40;48.70
3790;DHT22;1910;49.042;9.028;2023-10-13T12:32:22;28.10;49.60
3790;DHT22;1910;49.042;9.028;2023-10-13T12:34:51;28.60;51.00
3790;DHT22;1910;49.042;9.028;2023-10-13T12:37:26;28.50;51.10
3790;DHT22;1910;49.042;9.028;2023-10-13T12:40:05;28.60;49.70
3790;DHT22;1910;49.042;9.028;2023-10-13T12:42:50;28.70;50.00
3790;DHT22;1910;49.042;9.028;2023-10-13T12:45:46;28.80;49.50
3790;DHT22;1910;49.042;9.028;2023-10-13T12:48:31;28.70;48.10
3790;DHT22;1910;49.042;9.028;2023-10-13T12:51:16;28.90;49.90
3790;DHT22;1910;49.042;9.028;2023-10-13T12:56:46;28.40;48.40
3790;DHT22;1910;49.042;9.028;2023-10-13T12:59:11;28.00;48.40
3790;DHT22;1910;49.042;9.028;2023-10-13T13:01:41;27.60;48.90
3790;DHT22;1910;49.042;9.028;2023-10-13T13:04:12;27.60;49.30
3790;DHT22;1910;49.042;9.028;2023-10-13T13:06:49;27.50;49.50
3790;DHT22;1910;49.042;9.028;2023-10-13T13:09:18;27.20;49.20
3790;DHT22;1910;49.042;9.028;2023-10-13T13:11:53;27.40;50.60
3790;DHT22;1910;49.042;9.028;2023-10-13T13:14:26;27.40;49.80
3790;DHT22;1910;49.042;9.028;2023-10-13T13:17:00;27.50;50.90
3790;DHT22;1910;49.042;9.028;2023-10-13T13:19:37;27.70;50.40
3790;DHT22;1910;49.042;9.028;2023-10-13T13:22:07;28.30;50.60
3790;DHT22;1910;49.042;9.028;2023-10-13T13:24:42;28.30;51.10
3790;DHT22;1910;49.042;9.028;2023-10-13T13:27:13;28.30;48.60
3790;DHT22;1910;49.042;9.028;2023-10-13T13:29:41;28.30;49.10
3790;DHT22;1910;49.042;9.028;2023-10-13T13:32:07;28.30;49.00
3790;DHT22;1910;49.042;9.028;2023-10-13T13:34:47;28.40;49.90
3790;DHT22;1910;49.042;9.028;2023-10-13T13:37:35;28.60;50.30
3790;DHT22;1910;49.042;9.028;2023-10-13T13:40:06;28.50;48.10
3790;DHT22;1910;49.042;9.028;2023-10-13T13:42:42;28.40;49.10
3790;DHT22;1910;49.042;9.028;2023-10-13T13:45:18;28.40;48.90
3790;DHT22;1910;49.042;9.028;2023-10-13T13:47:50;28.20;48.20
3790;DHT22;1910;49.042;9.028;2023-10-13T13:50:22;28.10;48.40
3790;DHT22;1910;49.042;9.028;2023-10-13T13:52:56;28.10;49.50
3790;DHT22;1910;49.042;9.028;2023-10-13T13:55:25;28.20;49.50
3790;DHT22;1910;49.042;9.028;2023-10-13T13:57:56;28.20;49.20
3790;DHT22;1910;49.042;9.028;2023-10-13T14:00:26;28.20;48.90
3790;DHT22;1910;49.042;9.028;2023-10-13T14:03:06;28.30;49.10
3790;DHT22;1910;49.042;9.028;2023-10-13T14:05:42;28.30;49.50
3790;DHT22;1910;49.042;9.028;2023-10-13T14:08:08;28.30;48.10
3790;DHT22;1910;49.042;9.028;2023-10-13T14:10:38;28.10;46.40
3790;DHT22;1910;49.042;9.028;2023-10-13T14:13:23;28.20;47.00
3790;DHT22;1910;49.042;9.028;2023-10-13T14:16:09;28.00;47.40
3790;DHT22;1910;49.042;9.028;2023-10-13T14:21:07;27.40;47.20
3790;DHT22;1910;49.042;9.028;2023-10-13T14:23:33;28.00;48.10
3790;DHT22;1910;49.042;9.028;2023-10-13T14:25:59;28.10;49.20
3790;DHT22;1910;49.042;9.028;2023-10-13T14:28:26;27.90;48.10
3790;DHT22;1910;49.042;9.028;2023-10-13T14:31:04;27.80;48.20
3790;DHT22;1910;49.042;9.028;2023-10-13T14:33:35;27.80;48.60
3790;DHT22;1910;49.042;9.028;2023-10-13T14:36:03;27.80;49.20
3790;DHT22;1910;49.042;9.028;2023-10-13T14:38:30;27.80;48.10
3790;DHT22;1910;49.042;9.028;2023-10-13T14:40:59;27.80;48.40
3790;DHT22;1910;49.042;9.028;2023-10-13T14:43:24;27.80;49.10
3790;DHT22;1910;49.042;9.028;2023-10-13T14:45:55;27.80;50.40
3790;DHT22;1910;49.042;9.028;2023-10-13T14:48:21;27.60;47.90
3790;DHT22;1910;49.042;9.028;2023-10-13T14:50:49;27.60;48.60
3790;DHT22;1910;49.042;9.028;2023-10-13T14:53:15;27.60;48.60
3790;DHT22;1910;49.042;9.028;2023-10-13T14:58:11;27.50;47.80
3790;DHT22;1910;49.042;9.028;2023-10-13T15:00:42;27.40;49.10
3790;DHT22;1910;49.042;9.028;2023-10-13T15:03:11;27.40;49.60
3790;DHT22;1910;49.042;9.028;2023-10-13T15:05:40;27.40;49.40
3790;DHT22;1910;49.042;9.028;2023-10-13T15:08:09;27.40;49.10
3790;DHT22;1910;49.042;9.028;2023-10-13T15:10:34;27.40;50.30
3790;DHT22;1910;49.042;9.028;2023-10-13T15:13:03;27.30;49.30
3790;DHT22;1910;49.042;9.028;2023-10-13T15:15:28;27.20;49.80
3790;DHT22;1910;49.042;9.028;2023-10-13T15:17:57;27.20;51.20
3790;DHT22;1910;49.042;9.028;2023-10-13T15:20:23;27.20;51.30
3790;DHT22;1910;49.042;9.028;2023-10-13T15:22:48;27.10;51.30
3790;DHT22;1910;49.042;9.028;2023-10-13T15:27:47;27.00;52.50
3790;DHT22;1910;49.042;9.028;2023-10-13T15:30:24;26.90;53.90
3790;DHT22;1910;49.042;9.028;2023-10-13T15:32:56;26.70;53.60
3790;DHT22;1910;49.042;9.028;2023-10-13T15:35:23;26.50;55.00
3790;DHT22;1910;49.042;9.028;2023-10-13T15:37:54;26.60;56.10
3790;DHT22;1910;49.042;9.028;2023-10-13T15:40:20;26.50;56.60
3790;DHT22;1910;49.042;9.028;2023-10-13T15:42:46;26.40;56.60
3790;DHT22;1910;49.042;9.028;2023-10-13T15:45:13;26.10;57.80
3790;DHT22;1910;49.042;9.028;2023-10-13T15:47:45;25.90;59.60
3790;DHT22;1910;49.042;9.028;2023-10-13T15:50:13;25.60;61.10
3790;DHT22;1910;49.042;9.028;2023-10-13T15:52:41;25.50;61.40
3790;DHT22;1910;49.042;9.028;2023-10-13T15:55:13;25.30;63.50
3790;DHT22;1910;49.042;9.028;2023-10-13T15:57:40;25.10;63.30
3790;DHT22;1910;49.042;9.028;2023-10-13T16:00:08;25.00;63.50
3790;DHT22;1910;49.042;9.028;2023-10-13T16:02:50;24.80;64.60
3790;DHT22;1910;49.042;9.028;2023-10-13T16:07:42;24.30;64.00
3790;DHT22;1910;49.042;9.028;2023-10-13T16:10:08;23.90;66.90
3790;DHT22;1910;49.042;9.028;2023-10-13T16:12:37;23.70;68.70
3790;DHT22;1910;49.042;9.028;2023-10-13T16:15:03;23.50;69.40
3790;DHT22;1910;49.042;9.028;2023-10-13T16:19:57;23.10;69.10
3790;DHT22;1910;49.042;9.028;2023-10-13T16:22:22;22.80;69.90
3790;DHT22;1910;49.042;9.028;2023-10-13T16:24:48;22.50;72.70
3790;DHT22;1910;49.042;9.028;2023-10-13T16:27:13;22.30;74.90
3790;DHT22;1910;49.042;9.028;2023-10-13T16:29:39;21.90;77.10
3790;DHT22;1910;49.042;9.028;2023-10-13T16:32:08;21.60;78.70
3790;DHT22;1910;49.042;9.028;2023-10-13T16:34:34;21.30;80.10
3790;DHT22;1910;49.042;9.028;2023-10-13T16:37:00;21.20;81.10
3790;DHT22;1910;49.042;9.028;2023-10-13T16:39:30;21.00;80.90
3790;DHT22;1910;49.042;9.028;2023-10-13T16:41:56;20.90;83.40
3790;DHT22;1910;49.042;9.028;2023-10-13T16:44:24;20.70;80.30
3790;DHT22;1910;49.042;9.028;2023-10-13T16:46:53;20.70;81.10
3790;DHT22;1910;49.042;9.028;2023-10-13T16:49:25;20.60;82.40
3790;DHT22;1910;49.042;9.028;2023-10-13T16:51:51;20.50;81.90
3790;DHT22;1910;49.042;9.028;2023-10-13T16:54:17;20.30;83.10
3790;DHT22;1910;49.042;9.028;2023-10-13T16:56:42;20.30;84.00
3790;DHT22;1910;49.042;9.028;2023-10-13T16:59:08;20.10;84.10
3790;DHT22;1910;49.042;9.028;2023-10-13T17:01:33;20.00;84.80
3790;DHT22;1910;49.042;9.028;2023-10-13T17:03:59;19.90;84.40
3790;DHT22;1910;49.042;9.028;2023-10-13T17:06:24;19.90;85.10
3790;DHT22;1910;49.042;9.028;2023-10-13T17:08:50;19.80;83.10
3790;DHT22;1910;49.042;9.028;2023-10-13T17:11:18;19.80;84.60
3790;DHT22;1910;49.042;9.028;2023-10-13T17:16:19;19.70;85.10
3790;DHT22;1910;49.042;9.028;2023-10-13T17:18:46;19.60;86.00
3790;DHT22;1910;49.042;9.028;2023-10-13T17:21:26;19.50;86.30
3790;DHT22;1910;49.042;9.028;2023-10-13T17:23:56;19.50;87.50
3790;DHT22;1910;49.042;9.028;2023-10-13T17:26:24;19.40;88.00
3790;DHT22;1910;49.042;9.028;2023-10-13T17:31:20;19.30;85.90
3790;DHT22;1910;49.042;9.028;2023-10-13T17:33:47;19.30;82.20
3790;DHT22;1910;49.042;9.028;2023-10-13T17:36:14;22.30;86.90
3790;DHT22;1910;49.042;9.028;2023-10-13T17:38:40;19.30;85.70
3790;DHT22;1910;49.042;9.028;2023-10-13T17:41:10;19.30;85.90
3790;DHT22;1910;49.042;9.028;2023-10-13T17:43:36;19.30;81.60
3790;DHT22;1910;49.042;9.028;2023-10-13T17:46:09;19.60;80.20
3790;DHT22;1910;49.042;9.028;2023-10-13T17:48:36;19.60;77.50
3790;DHT22;1910;49.042;9.028;2023-10-13T17:51:06;19.70;78.30
3790;DHT22;1910;49.042;9.028;2023-10-13T17:53:32;19.60;76.60
3790;DHT22;1910;49.042;9.028;2023-10-13T17:56:07;19.80;74.60